Time;durP1;ratioP1;P1;durP2;ratioP2;P2;SDS_P1;SDS_P2;PMS_P1;PMS_P2;Temp;Humidity;BMP_temperature;BMP_pressure;BME280_temperature;BME280_humidity;BME280_pressure;Samples;Min_cycle;Max_cycle;Signal;HPM_P1;HPM_P2
2023/12/09 00:02:16;;;;;;;75.40;22.88;;;;;;;;;;4868826;29;20143;-81
2023/12/09 00:04:42;;;;;;;64.63;21.63;;;;;;;;;;4867305;29;20052;-82
2023/12/09 00:07:08;;;;;;;60.85;21.92;;;;;;;;;;4890258;29;20531;-82
2023/12/09 00:09:34;;;;;;;63.75;22.35;;;;;;;;;;4889436;29;20152;-82
2023/12/09 00:12:00;;;;;;;61.72;21.70;;;;;;;;;;4879071;29;20057;-82
2023/12/09 00:14:26;;;;;;;66.82;22.27;;;;;;;;;;4868835;29;20053;-82
2023/12/09 00:16:52;;;;;;;64.85;22.15;;;;;;;;;;4868792;29;20056;-82
2023/12/09 00:19:18;;;;;;;58.30;20.60;;;;;;;;;;4868008;29;20045;-82
2023/12/09 00:21:44;;;;;;;67.78;20.15;;;;;;;;;;4867485;29;20100;-82
2023/12/09 00:24:10;;;;;;;65.75;20.58;;;;;;;;;;4878692;29;20125;-81
2023/12/09 00:26:36;;;;;;;63.42;20.13;;;;;;;;;;4867361;29;20072;-80
2023/12/09 00:29:02;;;;;;;61.15;21.38;;;;;;;;;;4866811;29;20715;-81
2023/12/09 00:31:28;;;;;;;60.42;21.42;;;;;;;;;;4867140;29;20569;-81
2023/12/09 00:33:54;;;;;;;63.30;20.77;;;;;;;;;;4872691;29;20129;-81
2023/12/09 00:36:20;;;;;;;68.70;21.02;;;;;;;;;;4873622;29;20135;-81
2023/12/09 00:38:46;;;;;;;64.55;21.13;;;;;;;;;;4871740;29;20152;-81
2023/12/09 00:41:12;;;;;;;56.67;19.60;;;;;;;;;;4880092;29;20132;-81
2023/12/09 00:43:38;;;;;;;52.45;20.52;;;;;;;;;;4891208;29;20380;-81
2023/12/09 00:46:04;;;;;;;58.75;19.70;;;;;;;;;;4874058;29;20200;-81
2023/12/09 00:48:30;;;;;;;49.80;19.33;;;;;;;;;;4867922;29;20128;-81
2023/12/09 00:50:56;;;;;;;52.42;19.20;;;;;;;;;;4868905;29;20071;-81
2023/12/09 00:53:22;;;;;;;66.38;20.35;;;;;;;;;;4850978;29;20037;-80
2023/12/09 00:55:48;;;;;;;59.88;20.10;;;;;;;;;;4864011;29;20125;-81
2023/12/09 00:58:14;;;;;;;64.25;20.85;;;;;;;;;;4867568;29;20044;-83
2023/12/09 01:00:40;;;;;;;58.58;20.30;;;;;;;;;;4869164;29;20045;-81
2023/12/09 01:03:06;;;;;;;56.15;20.20;;;;;;;;;;4867794;29;20395;-81
2023/12/09 01:05:32;;;;;;;54.30;19.73;;;;;;;;;;4857576;29;20045;-80
2023/12/09 01:07:59;;;;;;;56.45;19.00;;;;;;;;;;4888294;29;20076;-81
2023/12/09 01:10:25;;;;;;;57.30;20.17;;;;;;;;;;4875762;29;20112;-80
2023/12/09 01:12:51;;;;;;;56.50;18.92;;;;;;;;;;4882907;29;20053;-82
2023/12/09 01:15:17;;;;;;;55.80;19.65;;;;;;;;;;4869930;29;20533;-81
2023/12/09 01:17:43;;;;;;;57.95;19.58;;;;;;;;;;4873623;29;20064;-82
2023/12/09 01:20:10;;;;;;;49.63;18.92;;;;;;;;;;4867901;29;20053;-82
2023/12/09 01:22:36;;;;;;;58.58;19.27;;;;;;;;;;4867650;29;20060;-82
2023/12/09 01:25:02;;;;;;;52.45;19.55;;;;;;;;;;4868370;29;20060;-82
2023/12/09 01:27:29;;;;;;;42.58;19.83;;;;;;;;;;4866894;29;20148;-81
2023/12/09 01:29:55;;;;;;;51.95;19.55;;;;;;;;;;4868841;29;20108;-82
2023/12/09 01:32:23;;;;;;;52.90;19.50;;;;;;;;;;4869619;29;20057;-82
2023/12/09 01:34:49;;;;;;;57.65;20.58;;;;;;;;;;4872755;29;20071;-82
2023/12/09 01:37:15;;;;;;;55.03;19.25;;;;;;;;;;4867668;29;20057;-81
2023/12/09 01:39:41;;;;;;;53.38;19.60;;;;;;;;;;4868067;29;20045;-81
2023/12/09 01:42:09;;;;;;;58.17;20.55;;;;;;;;;;4871908;29;20045;-80
2023/12/09 01:44:35;;;;;;;53.65;19.48;;;;;;;;;;4856776;29;20395;-81
2023/12/09 01:47:01;;;;;;;55.38;19.95;;;;;;;;;;4872982;29;20052;-81
2023/12/09 01:49:28;;;;;;;55.30;19.27;;;;;;;;;;4871756;29;20407;-81
2023/12/09 01:51:55;;;;;;;51.33;19.95;;;;;;;;;;4867280;29;20064;-81
2023/12/09 01:54:21;;;;;;;56.53;19.75;;;;;;;;;;4866697;29;20053;-80
2023/12/09 01:56:47;;;;;;;51.50;19.08;;;;;;;;;;4865946;29;20530;-81
2023/12/09 01:59:13;;;;;;;52.20;19.00;;;;;;;;;;4877567;29;20511;-80
2023/12/09 02:01:39;;;;;;;51.22;19.25;;;;;;;;;;4864992;29;20045;-80
2023/12/09 02:04:05;;;;;;;58.13;18.92;;;;;;;;;;4866599;29;20148;-80
2023/12/09 02:06:31;;;;;;;51.58;18.65;;;;;;;;;;4850782;29;20423;-80
2023/12/09 02:08:57;;;;;;;53.40;19.45;;;;;;;;;;4867080;29;20168;-80
2023/12/09 02:11:42;;;;;;;47.58;19.45;;;;;;;;;;4866517;29;20132;-81
2023/12/09 02:14:14;;;;;;;45.80;18.30;;;;;;;;;;4880863;29;20072;-81
2023/12/09 02:16:43;;;;;;;43.92;18.60;;;;;;;;;;4865157;29;20566;-81
2023/12/09 02:19:13;;;;;;;50.28;18.45;;;;;;;;;;4864528;29;20049;-81
2023/12/09 02:22:01;;;;;;;50.63;18.88;;;;;;;;;;4854308;29;20113;-81
2023/12/09 02:24:28;;;;;;;49.13;18.65;;;;;;;;;;4872311;29;20163;-81
2023/12/09 02:26:54;;;;;;;48.35;18.55;;;;;;;;;;4866813;29;20064;-82
2023/12/09 02:29:23;;;;;;;50.47;18.90;;;;;;;;;;4867499;29;20116;-81
2023/12/09 02:31:52;;;;;;;52.47;18.42;;;;;;;;;;4865163;29;20093;-82
2023/12/09 02:34:19;;;;;;;55.17;19.13;;;;;;;;;;4864074;29;20060;-82
2023/12/09 02:36:46;;;;;;;53.45;18.60;;;;;;;;;;4867045;29;20057;-82
2023/12/09 02:39:13;;;;;;;48.58;18.50;;;;;;;;;;4854742;29;20048;-82
2023/12/09 02:41:40;;;;;;;51.58;18.45;;;;;;;;;;4873262;29;20048;-82
2023/12/09 02:44:07;;;;;;;49.88;18.38;;;;;;;;;;4869818;29;20065;-81
2023/12/09 02:46:33;;;;;;;48.90;17.98;;;;;;;;;;4849246;29;20060;-81
2023/12/09 02:49:00;;;;;;;43.80;17.98;;;;;;;;;;4864329;29;20105;-81
2023/12/09 02:51:26;;;;;;;48.17;17.65;;;;;;;;;;4866983;29;20052;-81
2023/12/09 02:53:54;;;;;;;47.05;18.05;;;;;;;;;;4875353;29;20053;-81
2023/12/09 02:56:20;;;;;;;51.90;17.50;;;;;;;;;;4874130;29;20041;-81
2023/12/09 02:58:47;;;;;;;46.60;16.75;;;;;;;;;;4867602;29;20049;-81
2023/12/09 03:01:13;;;;;;;39.25;17.33;;;;;;;;;;4855441;29;20045;-81
2023/12/09 03:03:39;;;;;;;38.40;17.92;;;;;;;;;;4870161;29;20049;-81
2023/12/09 03:06:06;;;;;;;37.42;16.20;;;;;;;;;;4855756;29;20443;-82
2023/12/09 03:08:32;;;;;;;47.25;18.27;;;;;;;;;;4868250;29;20072;-81
2023/12/09 03:10:57;;;;;;;45.28;16.40;;;;;;;;;;4866194;29;20132;-81
2023/12/09 03:13:24;;;;;;;43.85;17.08;;;;;;;;;;4874001;29;20100;-81
2023/12/09 03:15:50;;;;;;;42.47;16.73;;;;;;;;;;4871350;29;20153;-81
2023/12/09 03:18:16;;;;;;;38.85;16.52;;;;;;;;;;4869750;29;20053;-81
2023/12/09 03:20:42;;;;;;;48.10;17.05;;;;;;;;;;4870673;29;20048;-82
2023/12/09 03:23:08;;;;;;;40.67;15.80;;;;;;;;;;4861705;29;20048;-82
2023/12/09 03:25:34;;;;;;;40.65;15.23;;;;;;;;;;4876921;29;20857;-81
2023/12/09 03:28:00;;;;;;;39.80;14.82;;;;;;;;;;4881047;29;20061;-81
2023/12/09 03:30:26;;;;;;;46.78;15.57;;;;;;;;;;4869835;29;20047;-81
2023/12/09 03:32:52;;;;;;;45.15;16.10;;;;;;;;;;4874665;29;20049;-82
2023/12/09 03:35:18;;;;;;;41.53;15.55;;;;;;;;;;4871590;29;20049;-81
2023/12/09 03:37:44;;;;;;;41.83;14.70;;;;;;;;;;4854189;29;20077;-81
2023/12/09 03:40:10;;;;;;;34.92;14.90;;;;;;;;;;4876048;29;20080;-82
2023/12/09 03:42:36;;;;;;;41.92;16.00;;;;;;;;;;4875387;29;20129;-81
2023/12/09 03:45:02;;;;;;;33.28;14.57;;;;;;;;;;4867467;29;20047;-81
2023/12/09 03:47:28;;;;;;;34.15;14.15;;;;;;;;;;4868735;29;20110;-82
2023/12/09 03:49:54;;;;;;;41.53;15.60;;;;;;;;;;4871518;29;20460;-81
2023/12/09 03:52:20;;;;;;;36.67;14.25;;;;;;;;;;4874962;29;20045;-82
2023/12/09 03:54:46;;;;;;;38.10;14.75;;;;;;;;;;4875862;29;20037;-82
2023/12/09 03:57:14;;;;;;;38.65;13.90;;;;;;;;;;4868806;29;20151;-82
2023/12/09 03:59:40;;;;;;;43.97;14.80;;;;;;;;;;4870048;29;20456;-81
2023/12/09 04:02:06;;;;;;;34.92;14.15;;;;;;;;;;4881182;29;20487;-81
2023/12/09 04:04:32;;;;;;;32.72;13.50;;;;;;;;;;4883740;29;20065;-81
2023/12/09 04:06:58;;;;;;;38.13;14.48;;;;;;;;;;4894562;29;20823;-81
2023/12/09 04:09:24;;;;;;;40.63;14.48;;;;;;;;;;4880069;29;20075;-81
2023/12/09 04:11:50;;;;;;;37.42;14.20;;;;;;;;;;4870090;29;20049;-81
2023/12/09 04:14:16;;;;;;;41.50;13.95;;;;;;;;;;4870950;29;20420;-81
2023/12/09 04:16:43;;;;;;;33.47;13.13;;;;;;;;;;4875896;29;20060;-81
2023/12/09 04:19:09;;;;;;;36.70;13.02;;;;;;;;;;4858929;29;20059;-81
2023/12/09 04:21:35;;;;;;;41.67;14.48;;;;;;;;;;4869748;29;20049;-81
2023/12/09 04:24:01;;;;;;;32.63;12.85;;;;;;;;;;4869282;29;20529;-81
2023/12/09 04:26:27;;;;;;;36.60;13.98;;;;;;;;;;4867896;29;20080;-81
2023/12/09 04:28:53;;;;;;;35.65;13.50;;;;;;;;;;4870389;29;20052;-80
2023/12/09 04:31:19;;;;;;;36.80;13.00;;;;;;;;;;4875278;29;20515;-81
2023/12/09 04:33:45;;;;;;;31.35;13.55;;;;;;;;;;4863265;29;20056;-81
2023/12/09 04:36:11;;;;;;;35.58;12.80;;;;;;;;;;4866719;29;20594;-81
2023/12/09 04:38:38;;;;;;;41.35;13.68;;;;;;;;;;4868018;29;20495;-81
2023/12/09 04:41:04;;;;;;;35.40;12.15;;;;;;;;;;4867337;29;20048;-81
2023/12/09 04:43:30;;;;;;;33.05;12.90;;;;;;;;;;4870845;29;20092;-81
2023/12/09 04:45:56;;;;;;;39.78;12.57;;;;;;;;;;4871605;29;20065;-82
2023/12/09 04:48:22;;;;;;;37.25;12.57;;;;;;;;;;4872069;29;20052;-81
2023/12/09 04:50:49;;;;;;;34.70;12.73;;;;;;;;;;4867284;29;20137;-81
2023/12/09 04:53:15;;;;;;;36.92;12.73;;;;;;;;;;4867521;29;20811;-82
2023/12/09 04:55:41;;;;;;;37.78;12.80;;;;;;;;;;4869044;29;20041;-81
2023/12/09 04:58:07;;;;;;;35.78;12.50;;;;;;;;;;4870508;29;20085;-82
2023/12/09 05:00:33;;;;;;;33.30;11.38;;;;;;;;;;4875320;29;20052;-82
2023/12/09 05:02:59;;;;;;;31.45;12.30;;;;;;;;;;4872998;29;20045;-82
2023/12/09 05:05:26;;;;;;;33.00;13.07;;;;;;;;;;4887491;29;20479;-82
2023/12/09 05:07:52;;;;;;;35.05;13.05;;;;;;;;;;4873363;29;20478;-82
2023/12/09 05:10:18;;;;;;;31.63;11.73;;;;;;;;;;4887635;29;20516;-82
2023/12/09 05:12:44;;;;;;;33.45;11.45;;;;;;;;;;4852019;29;20053;-82
2023/12/09 05:15:10;;;;;;;40.17;13.10;;;;;;;;;;4867102;29;20053;-82
2023/12/09 05:17:37;;;;;;;34.65;12.50;;;;;;;;;;4853227;29;20108;-82
2023/12/09 05:20:04;;;;;;;37.50;12.70;;;;;;;;;;4870559;29;20044;-82
2023/12/09 05:22:30;;;;;;;35.30;12.30;;;;;;;;;;4873937;29;20510;-82
2023/12/09 05:24:56;;;;;;;31.13;12.05;;;;;;;;;;4872118;29;20477;-81
2023/12/09 05:27:23;;;;;;;32.85;12.65;;;;;;;;;;4874366;29;20061;-81
2023/12/09 05:29:49;;;;;;;34.63;12.48;;;;;;;;;;4869480;29;20142;-82
2023/12/09 05:32:16;;;;;;;33.20;12.63;;;;;;;;;;4872788;29;20091;-81
2023/12/09 05:34:42;;;;;;;39.10;13.07;;;;;;;;;;4869452;29;20109;-81
2023/12/09 05:37:08;;;;;;;34.42;13.18;;;;;;;;;;4868569;29;20066;-82
2023/12/09 05:39:35;;;;;;;38.17;13.27;;;;;;;;;;4868000;29;20410;-81
2023/12/09 05:42:01;;;;;;;26.60;12.38;;;;;;;;;;4868916;29;20788;-81
2023/12/09 05:44:27;;;;;;;34.00;12.68;;;;;;;;;;4868619;29;20084;-81
2023/12/09 05:46:53;;;;;;;34.30;12.27;;;;;;;;;;4854376;29;20379;-82
2023/12/09 05:49:19;;;;;;;34.20;12.70;;;;;;;;;;4871189;29;20063;-81
2023/12/09 05:51:45;;;;;;;30.38;12.57;;;;;;;;;;4843020;29;20687;-81
2023/12/09 05:54:11;;;;;;;31.67;11.48;;;;;;;;;;4838454;29;20118;-82
2023/12/09 05:56:40;;;;;;;34.03;13.13;;;;;;;;;;4854892;29;20651;-81
2023/12/09 05:59:06;;;;;;;26.55;12.45;;;;;;;;;;4866792;29;20041;-82
2023/12/09 06:01:33;;;;;;;31.92;12.40;;;;;;;;;;4867350;29;20419;-82
2023/12/09 06:03:59;;;;;;;31.98;13.02;;;;;;;;;;4871971;29;20053;-82
2023/12/09 06:06:25;;;;;;;28.25;11.45;;;;;;;;;;4869010;29;20060;-82
2023/12/09 06:08:51;;;;;;;34.13;12.13;;;;;;;;;;4871356;29;20427;-81
2023/12/09 06:11:17;;;;;;;36.30;12.45;;;;;;;;;;4869949;29;20081;-81
2023/12/09 06:13:43;;;;;;;30.77;12.45;;;;;;;;;;4873868;29;20068;-82
2023/12/09 06:16:09;;;;;;;32.47;11.90;;;;;;;;;;4858774;29;20196;-81
2023/12/09 06:18:35;;;;;;;28.85;10.82;;;;;;;;;;4855771;29;20235;-81
2023/12/09 06:21:01;;;;;;;32.60;11.75;;;;;;;;;;4870849;29;20200;-81
2023/12/09 06:23:27;;;;;;;30.15;11.52;;;;;;;;;;4870473;29;20778;-82
2023/12/09 06:25:53;;;;;;;24.50;10.75;;;;;;;;;;4874767;29;20201;-81
2023/12/09 06:28:19;;;;;;;30.50;11.48;;;;;;;;;;4875679;29;20198;-83
2023/12/09 06:30:45;;;;;;;33.40;10.93;;;;;;;;;;4883645;29;20044;-80
2023/12/09 06:33:12;;;;;;;29.58;11.25;;;;;;;;;;4871024;29;20463;-80
2023/12/09 06:35:38;;;;;;;29.13;11.27;;;;;;;;;;4870578;29;20049;-81
2023/12/09 06:38:04;;;;;;;28.48;10.90;;;;;;;;;;4884698;29;20059;-83
2023/12/09 06:40:30;;;;;;;35.22;11.32;;;;;;;;;;4875774;29;20048;-82
2023/12/09 06:42:56;;;;;;;28.00;10.90;;;;;;;;;;4876247;29;20037;-81
2023/12/09 06:45:22;;;;;;;28.15;10.38;;;;;;;;;;4877550;29;20056;-80
2023/12/09 06:47:49;;;;;;;26.63;10.60;;;;;;;;;;4893178;29;20105;-81
2023/12/09 06:50:15;;;;;;;26.05;11.10;;;;;;;;;;4893404;29;20151;-80
2023/12/09 06:52:40;;;;;;;27.00;11.30;;;;;;;;;;4891513;29;20121;-81
2023/12/09 06:55:07;;;;;;;24.88;10.30;;;;;;;;;;4861419;29;20053;-82
2023/12/09 06:57:33;;;;;;;25.55;10.55;;;;;;;;;;4866809;29;20049;-81
2023/12/09 06:59:59;;;;;;;28.90;10.70;;;;;;;;;;4875269;29;20041;-80
2023/12/09 07:02:25;;;;;;;26.73;10.55;;;;;;;;;;4876303;29;20106;-82
2023/12/09 07:04:51;;;;;;;25.90;9.90;;;;;;;;;;4874967;29;20041;-81
2023/12/09 07:07:17;;;;;;;21.00;10.02;;;;;;;;;;4870041;29;20093;-81
2023/12/09 07:09:43;;;;;;;19.75;8.95;;;;;;;;;;4876115;29;20049;-82
2023/12/09 07:12:09;;;;;;;25.13;9.05;;;;;;;;;;4892299;29;20436;-82
2023/12/09 07:14:35;;;;;;;27.63;10.63;;;;;;;;;;4891146;29;20077;-80
2023/12/09 07:17:01;;;;;;;22.52;9.88;;;;;;;;;;4877557;29;20045;-81
2023/12/09 07:19:27;;;;;;;24.70;9.63;;;;;;;;;;4877679;29;20048;-81
2023/12/09 07:21:53;;;;;;;21.27;8.55;;;;;;;;;;4874838;29;20045;-81
2023/12/09 07:24:19;;;;;;;24.42;9.35;;;;;;;;;;4891573;29;20076;-81
2023/12/09 07:26:45;;;;;;;24.83;9.35;;;;;;;;;;4890720;29;20069;-82
2023/12/09 07:29:11;;;;;;;27.67;9.50;;;;;;;;;;4892195;29;20060;-81
2023/12/09 07:31:37;;;;;;;29.17;9.27;;;;;;;;;;4890252;29;20053;-81
2023/12/09 07:34:03;;;;;;;28.92;10.70;;;;;;;;;;4891410;29;20041;-82
2023/12/09 07:36:29;;;;;;;20.40;8.68;;;;;;;;;;4890892;29;20517;-81
2023/12/09 07:38:55;;;;;;;28.65;9.70;;;;;;;;;;4871898;29;20041;-81
2023/12/09 07:41:21;;;;;;;26.10;8.95;;;;;;;;;;4876715;29;20053;-84
2023/12/09 07:43:47;;;;;;;20.90;7.90;;;;;;;;;;4875306;29;20372;-81
2023/12/09 07:46:13;;;;;;;25.02;8.27;;;;;;;;;;4859686;29;20352;-82
2023/12/09 07:48:39;;;;;;;16.58;7.70;;;;;;;;;;4875242;29;20527;-82
2023/12/09 07:51:05;;;;;;;20.33;8.77;;;;;;;;;;4875649;29;20597;-82
2023/12/09 07:53:31;;;;;;;21.35;9.40;;;;;;;;;;4875275;29;20041;-82
2023/12/09 07:55:57;;;;;;;21.73;8.75;;;;;;;;;;4859723;29;20055;-81
2023/12/09 07:58:24;;;;;;;22.88;7.80;;;;;;;;;;4864056;29;20053;-82
2023/12/09 08:00:51;;;;;;;18.38;8.10;;;;;;;;;;4873653;29;20041;-81
2023/12/09 08:03:17;;;;;;;20.63;8.15;;;;;;;;;;4873536;29;20049;-82
2023/12/09 08:05:43;;;;;;;20.17;7.80;;;;;;;;;;4874654;29;20053;-81
2023/12/09 08:08:10;;;;;;;19.15;6.80;;;;;;;;;;4873486;29;20057;-81
2023/12/09 08:10:36;;;;;;;19.73;7.72;;;;;;;;;;4871674;29;20088;-81
2023/12/09 08:13:03;;;;;;;20.08;8.60;;;6.90;99.90;;;;;;4873384;29;20037;-80
2023/12/09 08:15:28;;;;;;;18.50;6.97;;;6.80;99.90;;;;;;4875440;29;20051;-80
2023/12/09 08:17:54;;;;;;;17.45;6.80;;;6.80;99.90;;;;;;4874797;29;20053;-80
2023/12/09 08:20:20;;;;;;;19.95;6.47;;;6.80;99.90;;;;;;4874930;29;20060;-80
2023/12/09 08:22:45;;;;;;;23.08;6.38;;;6.80;99.90;;;;;;4890602;29;20057;-81
2023/12/09 08:25:12;;;;;;;19.27;7.85;;;6.70;99.90;;;;;;4875120;29;20124;-82
2023/12/09 08:27:39;;;;;;;23.23;7.07;;;6.60;99.90;;;;;;4874085;29;20060;-81
2023/12/09 08:30:10;;;;;;;17.83;7.90;;;6.60;99.90;;;;;;4874029;29;20467;-81
2023/12/09 08:32:39;;;;;;;23.85;7.95;;;6.60;99.90;;;;;;4874294;29;20452;-81
2023/12/09 08:35:06;;;;;;;17.90;6.35;;;6.50;99.90;;;;;;4873903;29;20060;-81
2023/12/09 08:37:32;;;;;;;17.65;7.60;;;6.50;99.90;;;;;;4876691;29;20471;-81
2023/12/09 08:40:10;;;;;;;21.40;6.38;;;6.50;99.90;;;;;;4859185;29;20049;-81
2023/12/09 08:42:43;;;;;;;18.55;6.18;;;6.50;99.90;;;;;;4874713;29;20087;-81
2023/12/09 08:45:11;;;;;;;13.80;5.78;;;6.50;99.90;;;;;;4875111;29;20049;-80
2023/12/09 08:47:37;;;;;;;15.18;5.85;;;6.50;99.90;;;;;;4874239;29;20056;-81
2023/12/09 08:50:04;;;;;;;13.55;4.93;;;6.50;99.90;;;;;;4881047;29;20097;-81
2023/12/09 08:52:31;;;;;;;22.98;6.80;;;6.50;99.90;;;;;;4871862;29;20045;-81
2023/12/09 08:54:57;;;;;;;14.63;5.10;;;6.50;99.90;;;;;;4856428;29;20077;-81
2023/12/09 08:57:23;;;;;;;18.92;5.32;;;6.50;99.90;;;;;;4855916;29;20088;-81
2023/12/09 08:59:51;;;;;;;13.75;4.80;;;6.50;99.90;;;;;;4856517;29;20085;-81
2023/12/09 09:02:17;;;;;;;15.18;4.65;;;6.50;99.90;;;;;;4867693;29;20048;-81
2023/12/09 09:04:43;;;;;;;17.88;4.90;;;6.50;99.90;;;;;;4874388;29;20380;-81
2023/12/09 09:07:09;;;;;;;20.42;5.18;;;6.50;99.90;;;;;;4874640;29;20053;-81
2023/12/09 09:09:37;;;;;;;17.90;4.88;;;6.50;99.90;;;;;;4874341;29;20085;-81
2023/12/09 09:12:03;;;;;;;14.05;4.80;;;6.50;99.90;;;;;;4873459;29;20045;-80
2023/12/09 09:14:29;;;;;;;15.95;4.57;;;;;;;;;;4874431;29;20052;-81
2023/12/09 09:16:55;;;;;;;16.98;4.80;;;;;;;;;;4865630;29;20080;-81
2023/12/09 09:19:21;;;;;;;11.48;4.20;;;;;;;;;;4871303;29;20041;-84
2023/12/09 09:21:47;;;;;;;12.60;4.57;;;;;;;;;;4864920;29;20092;-84
2023/12/09 09:24:13;;;;;;;15.70;4.30;;;;;;;;;;4876793;29;20456;-84
2023/12/09 09:26:39;;;;;;;12.55;4.32;;;;;;;;;;4871438;29;20124;-82
2023/12/09 09:29:06;;;;;;;13.07;5.07;;;;;;;;;;4890775;29;20136;-84
2023/12/09 09:31:33;;;;;;;12.40;4.13;;;;;;;;;;4873915;29;20419;-83
2023/12/09 09:33:59;;;;;;;14.93;4.15;;;;;;;;;;4888797;29;20061;-82
2023/12/09 09:36:25;;;;;;;14.90;4.28;;;;;;;;;;4873965;29;20060;-83
2023/12/09 09:38:51;;;;;;;13.63;3.90;;;;;;;;;;4873511;29;20113;-82
2023/12/09 09:41:22;;;;;;;14.30;4.20;;;;;;;;;;4876392;29;20560;-82
2023/12/09 09:43:53;;;;;;;15.27;4.00;;;;;;;;;;4871847;29;20052;-84
2023/12/09 09:46:20;;;;;;;14.18;3.78;;;;;;;;;;4888748;29;20064;-83
2023/12/09 09:48:49;;;;;;;9.90;4.10;;;;;;;;;;4873798;29;20080;-83
2023/12/09 09:51:17;;;;;;;17.95;4.00;;;;;;;;;;4888080;29;20049;-84
2023/12/09 09:53:50;;;;;;;12.68;3.97;;;;;;;;;;4874076;29;20045;-84
2023/12/09 09:56:16;;;;;;;13.32;4.07;;;;;;;;;;4874143;29;20877;-84
2023/12/09 09:58:42;;;;;;;10.55;3.83;;;;;;;;;;4872832;29;20052;-84
2023/12/09 10:01:09;;;;;;;16.17;3.78;;;;;;;;;;4889086;29;20041;-86
2023/12/09 10:03:35;;;;;;;8.57;4.00;;;;;;;;;;4875249;29;20045;-84
2023/12/09 10:06:01;;;;;;;11.73;3.38;;;;;;;;;;4874141;29;20045;-84
2023/12/09 10:08:29;;;;;;;15.73;3.78;;;;;;;;;;4874594;29;20526;-84
2023/12/09 10:10:55;;;;;;;9.90;3.55;;;;;;;;;;4858160;29;20093;-82
2023/12/09 10:13:21;;;;;;;10.18;3.47;;;;;;;;;;4858260;29;20087;-83
2023/12/09 10:15:47;;;;;;;12.30;3.90;;;;;;;;;;4857495;29;20052;-85
2023/12/09 10:18:14;;;;;;;11.65;3.97;;;;;;;;;;4883927;29;20110;-84
2023/12/09 10:20:40;;;;;;;12.63;3.30;;;;;;;;;;4870721;29;20053;-84
2023/12/09 10:23:08;;;;;;;11.05;3.75;;;;;;;;;;4864606;29;20223;-84
2023/12/09 10:25:34;;;;;;;15.60;4.05;;;;;;;;;;4875462;29;20088;-83
2023/12/09 10:28:00;;;;;;;13.55;3.83;;;;;;;;;;4889332;29;20475;-82
2023/12/09 10:30:26;;;;;;;9.13;3.85;;;;;;;;;;4888702;29;20061;-82
2023/12/09 10:32:52;;;;;;;10.10;3.63;;;;;;;;;;4889613;29;20049;-83
2023/12/09 10:35:18;;;;;;;12.30;3.85;;;;;;;;;;4873488;29;20085;-83
2023/12/09 10:37:44;;;;;;;7.47;3.53;;;;;;;;;;4888344;29;20056;-83
2023/12/09 10:40:10;;;;;;;13.63;4.40;;;;;;;;;;4858294;29;20053;-82
2023/12/09 10:42:40;;;;;;;11.43;3.72;;;;;;;;;;4858246;29;20053;-83
2023/12/09 10:45:08;;;;;;;9.73;3.95;;;;;;;;;;4873292;29;20049;-83
2023/12/09 10:47:34;;;;;;;8.18;3.35;;;;;;;;;;4871535;29;20053;-83
2023/12/09 10:50:02;;;;;;;12.05;3.60;;;;;;;;;;4888403;29;20100;-84
2023/12/09 10:52:29;;;;;;;9.20;3.65;;;;;;;;;;4888582;29;20072;-85
2023/12/09 10:54:55;;;;;;;11.45;3.67;;;;;;;;;;4874143;29;20140;-85
2023/12/09 10:57:22;;;;;;;6.60;3.70;;;;;;;;;;4888505;29;20793;-86
2023/12/09 10:59:48;;;;;;;12.20;4.15;;;;;;;;;;4874046;29;20055;-87
2023/12/09 11:02:16;;;;;;;7.65;3.55;;;;;;;;;;4872201;29;20084;-84
2023/12/09 11:04:43;;;;;;;12.00;4.10;;;;;;;;;;4875836;29;20049;-85
2023/12/09 11:07:11;;;;;;;10.30;3.78;;;;;;;;;;4872912;29;20057;-85
2023/12/09 11:09:37;;;;;;;12.18;3.65;;;;;;;;;;4888806;29;20077;-87
2023/12/09 11:12:04;;;;;;;10.60;3.67;;;;;;;;;;4881767;29;20124;-83
2023/12/09 11:14:31;;;;;;;8.85;3.30;;;;;;;;;;4889341;29;20053;-82
2023/12/09 11:16:59;;;;;;;10.57;3.78;;;;;;;;;;4877556;29;20045;-84
2023/12/09 11:19:27;;;;;;;10.70;3.30;;;;;;;;;;4877689;29;20057;-86
2023/12/09 11:21:53;;;;;;;10.18;3.60;;;;;;;;;;4859874;29;20068;-86
2023/12/09 11:24:19;;;;;;;10.48;4.78;;;;;;;;;;4852098;29;20081;-86
2023/12/09 11:26:46;;;;;;;6.47;3.58;;;;;;;;;;4873977;29;20064;-85
2023/12/09 11:29:12;;;;;;;10.77;3.90;;;;;;;;;;4858741;29;20045;-83
2023/12/09 11:31:43;;;;;;;11.50;3.38;;;;;;;;;;4873486;29;20044;-83
2023/12/09 11:34:11;;;;;;;11.07;3.10;;;;;;;;;;4876975;29;20072;-84
2023/12/09 11:36:38;;;;;;;6.72;2.95;;;;;;;;;;4875127;29;20064;-84
2023/12/09 11:39:09;;;;;;;11.15;3.55;;;;;;;;;;4875903;29;20064;-86
2023/12/09 11:41:36;;;;;;;8.43;3.10;;;;;;;;;;4876750;29;20051;-84
2023/12/09 11:44:03;;;;;;;8.82;3.28;;;;;;;;;;4876828;29;20488;-85
2023/12/09 11:46:31;;;;;;;11.25;3.70;;;;;;;;;;4874427;29;20508;-86
2023/12/09 11:48:57;;;;;;;9.57;2.92;;;;;;;;;;4860129;29;20136;-86
2023/12/09 11:51:23;;;;;;;8.77;3.25;;;;;;;;;;4875483;29;20144;-85
2023/12/09 11:53:53;;;;;;;9.48;3.22;;;;;;;;;;4876859;29;20053;-85
2023/12/09 11:56:19;;;;;;;10.80;3.47;;;;;;;;;;4876515;29;20061;-86
2023/12/09 11:58:45;;;;;;;8.45;2.60;;;;;;;;;;4877791;29;20471;-85
2023/12/09 12:01:11;;;;;;;9.45;3.05;;;;;;;;;;4891020;29;20049;-84
2023/12/09 12:03:37;;;;;;;7.05;2.88;;;;;;;;;;4875467;29;20655;-85
2023/12/09 12:06:04;;;;;;;9.10;3.08;;;;;;;;;;4876134;29;20053;-85
2023/12/09 12:08:30;;;;;;;8.43;2.70;;;;;;;;;;4877256;29;20456;-85
2023/12/09 12:10:56;;;;;;;8.68;3.03;;;;;;;;;;4876728;29;20131;-84
2023/12/09 12:13:22;;;;;;;10.95;3.13;;;;;;;;;;4877190;29;20522;-84
2023/12/09 12:15:52;;;;;;;9.95;2.97;;;;;;;;;;4878395;29;20391;-85
2023/12/09 12:18:18;;;;;;;7.00;2.60;;;;;;;;;;4859321;29;20053;-85
2023/12/09 12:20:45;;;;;;;8.43;2.90;;;;;;;;;;4876245;29;20057;-84
2023/12/09 12:23:12;;;;;;;7.78;2.95;;;;;;;;;;4875347;29;20060;-86
2023/12/09 12:25:38;;;;;;;9.23;3.08;;;;;;;;;;4873106;29;20891;-84
2023/12/09 12:28:04;;;;;;;11.30;3.42;;;;;;;;;;4889659;29;21102;-85
2023/12/09 12:30:33;;;;;;;12.00;3.08;;;;;;;;;;4889852;29;20384;-82
2023/12/09 12:33:00;;;;;;;6.97;2.45;;;;;;;;;;4889838;29;20089;-81
2023/12/09 12:35:26;;;;;;;9.88;2.65;;;;;;;;;;4858447;29;20072;-81
2023/12/09 12:37:52;;;;;;;6.40;2.80;;;;;;;;;;4889783;29;20063;-81
2023/12/09 12:40:21;;;;;;;12.00;2.90;;;;;;;;;;4888934;29;20052;-80
2023/12/09 12:42:49;;;;;;;7.75;2.90;;;;;;;;;;4889228;29;20455;-81
2023/12/09 12:45:17;;;;;;;6.68;2.33;;;;;;;;;;4873502;29;20135;-83
2023/12/09 12:47:43;;;;;;;11.23;3.00;;;;;;;;;;4873503;29;20080;-82
2023/12/09 12:50:10;;;;;;;7.05;2.28;;;;;;;;;;4874713;29;20073;-81
2023/12/09 12:52:36;;;;;;;11.93;2.80;;;;;;;;;;4873680;29;20053;-81
2023/12/09 12:55:03;;;;;;;9.27;2.80;;;;;;;;;;4876451;29;20053;-82
2023/12/09 12:57:29;;;;;;;7.75;2.65;;;;;;;;;;4874899;29;20049;-81
2023/12/09 12:59:56;;;;;;;9.95;2.85;;;;;;;;;;4874426;29;20053;-82
2023/12/09 13:02:22;;;;;;;7.50;2.40;;;;;;;;;;4874414;29;20053;-82
2023/12/09 13:04:49;;;;;;;6.22;2.53;;;;;;;;;;4889864;29;20048;-82
2023/12/09 13:07:15;;;;;;;7.53;2.75;;;;;;;;;;4873715;29;20085;-82
2023/12/09 13:09:41;;;;;;;6.93;2.35;;;;;;;;;;4889499;29;20495;-81
2023/12/09 13:12:07;;;;;;;10.10;2.90;;;;;;;;;;4889825;29;20103;-82
2023/12/09 13:14:33;;;;;;;5.20;2.33;;;;;;;;;;4889816;29;20057;-82
2023/12/09 13:17:00;;;;;;;5.35;2.30;;;;;;;;;;4889542;29;20120;-82
2023/12/09 13:19:26;;;;;;;10.00;2.83;;;;;;;;;;4858875;29;20490;-82
2023/12/09 13:21:52;;;;;;;8.38;2.78;;;;;;;;;;4857870;29;20045;-82
2023/12/09 13:24:18;;;;;;;8.82;3.15;;;;;;;;;;4888690;29;20065;-82
2023/12/09 13:26:44;;;;;;;8.93;2.40;;;;;;;;;;4889393;29;20570;-83
2023/12/09 13:29:10;;;;;;;5.40;2.58;;;;;;;;;;4873754;29;20587;-83
2023/12/09 13:31:36;;;;;;;5.50;2.35;;;;;;;;;;4889381;29;20136;-82
2023/12/09 13:34:04;;;;;;;8.88;2.30;;;;;;;;;;4889681;29;20053;-82
2023/12/09 13:36:31;;;;;;;8.43;2.60;;;;;;;;;;4875039;29;20053;-82
2023/12/09 13:38:57;;;;;;;8.65;2.58;;;;;;;;;;4871615;29;20132;-81
2023/12/09 13:41:23;;;;;;;5.47;2.15;;;;;;;;;;4872320;29;20542;-81
2023/12/09 13:43:50;;;;;;;11.75;2.58;;;;;;;;;;4875262;29;20882;-82
2023/12/09 13:46:16;;;;;;;4.85;2.38;;;;;;;;;;4871818;29;20041;-83
2023/12/09 13:48:42;;;;;;;8.10;2.90;;;;;;;;;;4873500;29;20056;-82
2023/12/09 13:51:09;;;;;;;7.85;2.90;;;;;;;;;;4871581;29;20476;-83
2023/12/09 13:53:35;;;;;;;6.65;2.58;;;;;;;;;;4888624;29;20049;-83
2023/12/09 13:56:03;;;;;;;10.07;2.75;;;;;;;;;;4889266;29;20451;-83
2023/12/09 13:58:29;;;;;;;10.05;2.70;;;;;;;;;;4889168;29;20060;-82
2023/12/09 14:00:57;;;;;;;7.35;2.97;;;;;;;;;;4890099;29;20049;-83
2023/12/09 14:03:23;;;;;;;12.10;2.67;;;;;;;;;;4888882;29;20127;-84
2023/12/09 14:05:49;;;;;;;9.02;3.05;;;;;;;;;;4873066;29;20052;-84
2023/12/09 14:08:17;;;;;;;9.90;2.90;;;;;;;;;;4871690;29;20426;-83
2023/12/09 14:10:43;;;;;;;8.90;2.63;;;;;;;;;;4873139;29;20411;-83
2023/12/09 14:13:09;;;;;;;8.55;2.50;;;;;;;;;;4857471;29;20502;-83
2023/12/09 14:15:36;;;;;;;6.22;2.53;;;;;;;;;;4858680;29;20074;-83